createdAt,value
2023-05-01T03:36:22.018Z,0.00
2023-05-01T03:37:22.014Z,0.00
2023-05-01T03:38:21.998Z,0.00
2023-05-01T03:39:21.990Z,0.00
2023-05-01T03:40:21.998Z,0.00
2023-05-01T03:41:21.974Z,0.00
2023-05-01T03:42:21.963Z,0.00
2023-05-01T03:43:21.955Z,0.00
2023-05-01T03:44:21.937Z,0.00
2023-05-01T03:45:21.928Z,0.00
2023-05-01T03:46:21.973Z,0.00
2023-05-01T03:47:21.942Z,0.00
2023-05-01T03:48:21.924Z,0.00
2023-05-01T03:49:21.885Z,0.00
2023-05-01T03:50:21.987Z,0.00
2023-05-01T03:52:21.858Z,0.00
2023-05-01T03:53:21.845Z,0.00
2023-05-01T03:54:21.857Z,0.00
2023-05-01T03:56:21.819Z,0.00
2023-05-01T03:57:21.809Z,0.00
2023-05-01T03:58:21.794Z,0.00
2023-05-01T03:59:21.784Z,0.00
2023-05-01T04:00:21.778Z,0.00
2023-05-01T04:01:21.765Z,0.00
2023-05-01T04:02:21.959Z,0.00
2023-05-01T04:03:21.824Z,0.00
2023-05-01T04:04:21.801Z,0.00
2023-05-01T04:05:21.720Z,0.00
2023-05-01T04:07:21.698Z,0.00
2023-05-01T04:08:21.688Z,0.00
2023-05-01T04:09:21.679Z,0.00
2023-05-01T04:10:21.667Z,0.00
2023-05-01T04:12:21.646Z,0.00
2023-05-01T04:13:21.637Z,0.00
2023-05-01T04:14:21.626Z,0.00
2023-05-01T04:15:21.614Z,0.00
2023-05-01T04:16:21.626Z,0.00
2023-05-01T04:17:21.593Z,0.00
2023-05-01T04:18:21.864Z,0.00
2023-05-01T04:19:21.577Z,0.00
2023-05-01T04:20:21.607Z,0.00
2023-05-01T04:21:21.561Z,0.00
2023-05-01T04:23:22.539Z,0.00
2023-05-01T04:24:21.522Z,0.00
2023-05-01T04:25:21.522Z,0.00
2023-05-01T04:26:21.502Z,0.00
2023-05-01T04:27:21.491Z,0.00
2023-05-01T04:28:21.487Z,0.00
2023-05-01T04:29:21.472Z,0.00
2023-05-01T04:30:21.457Z,0.00
2023-05-01T04:31:21.486Z,0.00
2023-05-01T04:32:21.483Z,0.00
2023-05-01T04:33:21.428Z,0.00
2023-05-01T04:34:21.424Z,0.00
2023-05-01T04:36:21.425Z,0.00
2023-05-01T04:37:21.380Z,0.00
2023-05-01T04:38:21.373Z,0.00
2023-05-01T04:39:21.368Z,0.00
2023-05-01T04:40:21.356Z,0.00
2023-05-01T04:41:21.341Z,0.00
2023-05-01T04:42:21.337Z,0.00
2023-05-01T04:43:21.316Z,0.00
2023-05-01T04:44:21.306Z,0.00
2023-05-01T04:45:21.301Z,0.00
2023-05-01T04:46:21.350Z,0.00
2023-05-01T04:47:21.281Z,0.00
2023-05-01T04:48:21.316Z,0.00
2023-05-01T04:49:21.257Z,0.00
2023-05-01T04:50:21.294Z,0.00
2023-05-01T04:51:21.230Z,0.00
2023-05-01T04:54:21.202Z,5.62
2023-05-01T04:55:21.203Z,5.62
2023-05-01T04:58:21.158Z,5.62
2023-05-01T04:59:21.146Z,5.62
2023-05-01T05:00:21.144Z,5.62
2023-05-01T05:01:21.144Z,5.62
2023-05-01T05:02:21.120Z,5.62
2023-05-01T05:04:21.098Z,5.62
2023-05-01T05:05:21.090Z,5.62
2023-05-01T05:07:21.077Z,5.62
2023-05-01T05:08:21.159Z,5.62
2023-05-01T05:09:21.052Z,5.62
2023-05-01T05:11:21.028Z,11.25
2023-05-01T05:13:21.010Z,11.25
2023-05-01T05:14:21.002Z,11.25
2023-05-01T05:15:21.015Z,11.25
2023-05-01T05:16:21.011Z,11.25
2023-05-01T05:18:20.992Z,11.25
2023-05-01T05:20:20.940Z,5.62
2023-05-01T05:29:20.849Z,5.62
2023-05-01T05:31:20.916Z,5.62
2023-05-01T05:32:20.899Z,5.62
2023-05-01T05:36:20.772Z,11.25
2023-05-01T05:37:20.767Z,5.62
2023-05-01T05:39:20.740Z,5.62
2023-05-01T05:41:20.720Z,11.25
2023-05-01T05:42:20.728Z,16.87
2023-05-01T05:44:20.686Z,22.50
2023-05-01T05:48:20.681Z,22.50
2023-05-01T05:52:20.610Z,28.12
2023-05-01T05:54:20.586Z,33.75
2023-05-01T05:55:20.581Z,33.75
2023-05-01T05:56:20.609Z,39.37
2023-05-01T05:57:20.554Z,39.37
2023-05-01T05:58:20.547Z,39.37
2023-05-01T05:59:20.538Z,39.37
2023-05-01T06:00:20.537Z,45.00
2023-05-01T06:02:20.592Z,56.25
2023-05-01T06:08:20.453Z,129.37
2023-05-01T06:10:20.418Z,118.12
2023-05-01T06:11:20.414Z,106.87
2023-05-01T06:12:20.428Z,106.87
2023-05-01T06:13:20.398Z,118.12
2023-05-01T06:15:20.377Z,140.62
2023-05-01T06:16:20.381Z,135.00
2023-05-01T06:17:20.352Z,106.87
2023-05-01T06:19:20.339Z,78.75
2023-05-01T06:20:20.321Z,73.12
2023-05-01T06:21:20.313Z,73.12
2023-05-01T06:25:20.267Z,67.50
2023-05-01T06:28:20.458Z,95.62
2023-05-01T06:33:20.444Z,157.50
2023-05-01T06:34:20.174Z,157.50
2023-05-01T06:35:20.164Z,146.25
2023-05-01T06:36:20.155Z,140.62
2023-05-01T06:37:20.145Z,135.00
2023-05-01T06:39:20.129Z,123.75
2023-05-01T06:40:20.112Z,123.75
2023-05-01T06:41:20.100Z,129.37
2023-05-01T06:42:20.092Z,135.00
2023-05-01T06:43:20.082Z,135.00
2023-05-01T06:44:20.230Z,129.37
2023-05-01T06:46:20.074Z,123.75
2023-05-01T06:48:20.029Z,118.12
2023-05-01T06:49:20.048Z,118.12
2023-05-01T06:51:20.001Z,123.75
2023-05-01T06:52:19.989Z,129.37
2023-05-01T06:55:19.971Z,146.25
2023-05-01T06:56:19.949Z,146.25
2023-05-01T06:57:19.937Z,151.87
2023-05-01T06:58:23.937Z,146.25
2023-05-01T06:59:19.913Z,151.87
2023-05-01T07:00:19.930Z,151.87
2023-05-01T07:01:19.918Z,163.12
2023-05-01T07:02:20.013Z,157.50
2023-05-01T07:09:19.812Z,180.00
2023-05-01T07:11:19.789Z,180.00
2023-05-01T07:13:19.773Z,208.12
2023-05-01T07:15:19.854Z,225.00
2023-05-01T07:16:19.821Z,236.25
2023-05-01T07:17:19.768Z,247.50
2023-05-01T07:19:19.716Z,264.37
2023-05-01T07:21:19.696Z,286.87
2023-05-01T07:22:19.687Z,286.87
2023-05-01T07:23:19.674Z,298.12
2023-05-01T07:24:19.661Z,303.75
2023-05-01T07:26:19.657Z,315.00
2023-05-01T07:28:19.628Z,326.25
2023-05-01T07:29:19.621Z,326.25
2023-05-01T07:30:19.605Z,331.87
2023-05-01T07:31:19.656Z,331.87
2023-05-01T07:32:19.780Z,331.87
2023-05-01T07:34:19.641Z,326.25
2023-05-01T07:36:19.540Z,320.62
2023-05-01T07:37:19.532Z,326.25
2023-05-01T07:38:19.553Z,320.62
2023-05-01T07:40:19.500Z,315.00
2023-05-01T07:41:19.491Z,303.75
2023-05-01T07:43:19.475Z,292.50
2023-05-01T07:45:19.447Z,275.62
2023-05-01T07:46:19.450Z,270.00
2023-05-01T07:48:19.440Z,264.37
2023-05-01T07:50:19.394Z,258.75
2023-05-01T07:51:19.386Z,258.75
2023-05-01T07:55:19.351Z,264.37
2023-05-01T07:56:19.334Z,275.62
2023-05-01T07:58:19.324Z,286.87
2023-05-01T08:02:19.377Z,315.00
2023-05-01T08:03:19.618Z,326.25
2023-05-01T08:04:19.350Z,331.87
2023-05-01T08:05:19.240Z,337.50
2023-05-01T08:08:19.221Z,337.50
2023-05-01T08:09:19.203Z,337.50
2023-05-01T08:10:19.206Z,337.50
2023-05-01T08:12:19.170Z,331.87
2023-05-01T08:14:19.152Z,331.87
2023-05-01T08:15:19.144Z,326.25
2023-05-01T08:16:21.183Z,326.25
2023-05-01T08:17:19.150Z,326.25
2023-05-01T08:23:19.063Z,382.50
2023-05-01T08:25:19.040Z,410.62
2023-05-01T08:27:19.024Z,421.87
2023-05-01T08:28:19.011Z,433.12
2023-05-01T08:29:19.000Z,444.37
2023-05-01T08:30:18.994Z,461.25
2023-05-01T08:31:19.010Z,455.62
2023-05-01T08:34:18.954Z,455.62
2023-05-01T08:35:18.935Z,455.62
2023-05-01T08:39:18.908Z,472.50
2023-05-01T08:40:18.893Z,472.50
2023-05-01T08:41:18.887Z,478.12
2023-05-01T08:42:18.870Z,478.12
2023-05-01T08:43:18.862Z,472.50
2023-05-01T08:44:18.848Z,461.25
2023-05-01T08:46:18.868Z,455.62
2023-05-01T08:47:18.825Z,455.62
2023-05-01T08:48:18.862Z,450.00
2023-05-01T08:49:18.838Z,438.75
2023-05-01T08:50:18.802Z,433.12
2023-05-01T08:51:20.060Z,427.50
2023-05-01T08:52:18.815Z,416.25
2023-05-01T08:53:18.755Z,405.00
2023-05-01T08:54:18.745Z,393.75
2023-05-01T08:55:18.733Z,382.50
2023-05-01T08:56:18.722Z,376.87
2023-05-01T08:57:18.717Z,376.87
2023-05-01T08:58:18.705Z,371.25
2023-05-01T08:59:18.691Z,371.25
2023-05-01T09:00:18.682Z,365.62
2023-05-01T09:02:18.658Z,354.37
2023-05-01T09:03:18.824Z,348.75
2023-05-01T09:05:18.633Z,337.50
2023-05-01T09:06:18.698Z,331.87
2023-05-01T09:07:18.616Z,326.25
2023-05-01T09:08:18.631Z,326.25
2023-05-01T09:09:18.595Z,320.62
2023-05-01T09:10:18.596Z,315.00
2023-05-01T09:11:18.569Z,315.00
2023-05-01T09:12:18.560Z,315.00
2023-05-01T09:13:18.555Z,315.00
2023-05-01T09:14:18.542Z,315.00
2023-05-01T09:15:18.530Z,315.00
2023-05-01T09:16:18.557Z,309.37
2023-05-01T09:17:18.659Z,309.37
2023-05-01T09:18:18.544Z,303.75
2023-05-01T09:19:18.488Z,298.12
2023-05-01T09:20:18.486Z,292.50
2023-05-01T09:21:18.472Z,286.87
2023-05-01T09:22:18.466Z,286.87
2023-05-01T09:25:18.429Z,281.25
2023-05-01T09:26:18.417Z,281.25
2023-05-01T09:27:18.410Z,286.87
2023-05-01T09:28:18.405Z,292.50
2023-05-01T09:29:18.398Z,303.75
2023-05-01T09:30:18.381Z,320.62
2023-05-01T09:31:18.427Z,331.87
2023-05-01T09:32:18.425Z,343.12
2023-05-01T09:33:18.448Z,360.00
2023-05-01T09:34:18.344Z,376.87
2023-05-01T09:36:18.334Z,416.25
2023-05-01T09:38:18.295Z,489.37
2023-05-01T09:39:18.287Z,500.62
2023-05-01T09:40:18.302Z,545.62
2023-05-01T09:41:18.263Z,556.87
2023-05-01T09:42:18.258Z,585.00
2023-05-01T09:43:18.271Z,607.50
2023-05-01T09:44:18.237Z,618.75
2023-05-01T09:45:18.234Z,630.00
2023-05-01T09:46:18.313Z,641.25
2023-05-01T09:48:18.194Z,596.25
2023-05-01T09:49:18.185Z,590.62
2023-05-01T09:50:18.247Z,590.62
2023-05-01T09:51:18.165Z,585.00
2023-05-01T09:52:18.182Z,585.00
2023-05-01T09:53:18.150Z,596.25
2023-05-01T09:54:18.133Z,635.62
2023-05-01T09:55:18.128Z,585.00
2023-05-01T09:56:18.248Z,551.25
2023-05-01T09:57:18.100Z,540.00
2023-05-01T09:58:18.105Z,534.37
2023-05-01T09:59:18.101Z,534.37
2023-05-01T10:00:18.115Z,551.25
2023-05-01T10:02:18.166Z,607.50
2023-05-01T10:03:18.091Z,663.75
2023-05-01T10:04:18.037Z,607.50
2023-05-01T10:05:18.022Z,579.37
2023-05-01T10:06:18.091Z,568.12
2023-05-01T10:09:17.982Z,478.12
2023-05-01T10:10:18.034Z,433.12
2023-05-01T10:11:17.968Z,399.37
2023-05-01T10:13:17.937Z,348.75
2023-05-01T10:14:17.935Z,331.87
2023-05-01T10:16:17.940Z,331.87
